sensor_id;sensor_type;location;lat;lon;timestamp;temperature;humidity
24638;DHT22;12773;50.162;8.548;2024-01-15T00:02:11;-0.40;99.90
24638;DHT22;12773;50.162;8.548;2024-01-15T00:04:58;-0.40;99.90
24638;DHT22;12773;50.162;8.548;2024-01-15T00:07:46;-0.30;99.90
24638;DHT22;12773;50.162;8.548;2024-01-15T00:10:33;-0.40;99.90
24638;DHT22;12773;50.162;8.548;2024-01-15T00:13:20;-0.40;99.90
24638;DHT22;12773;50.162;8.548;2024-01-15T00:16:08;-0.40;99.90
24638;DHT22;12773;50.162;8.548;2024-01-15T00:18:55;-0.30;99.90
24638;DHT22;12773;50.162;8.548;2024-01-15T00:21:42;-0.30;99.90
24638;DHT22;12773;50.162;8.548;2024-01-15T00:24:30;-0.40;99.90
24638;DHT22;12773;50.162;8.548;2024-01-15T00:27:17;-0.40;99.90
24638;DHT22;12773;50.162;8.548;2024-01-15T00:30:05;-0.40;99.90
24638;DHT22;12773;50.162;8.548;2024-01-15T00:32:53;-0.30;99.90
24638;DHT22;12773;50.162;8.548;2024-01-15T00:35:41;-0.30;99.90
24638;DHT22;12773;50.162;8.548;2024-01-15T00:38:29;-0.30;99.90
24638;DHT22;12773;50.162;8.548;2024-01-15T00:41:16;-0.30;99.90
24638;DHT22;12773;50.162;8.548;2024-01-15T00:44:04;-0.40;99.90
24638;DHT22;12773;50.162;8.548;2024-01-15T00:46:52;-0.30;99.90
24638;DHT22;12773;50.162;8.548;2024-01-15T00:49:39;-0.20;99.90
24638;DHT22;12773;50.162;8.548;2024-01-15T00:52:26;-0.30;99.90
24638;DHT22;12773;50.162;8.548;2024-01-15T00:55:14;-0.30;99.90
24638;DHT22;12773;50.162;8.548;2024-01-15T00:58:01;-0.30;99.90
24638;DHT22;12773;50.162;8.548;2024-01-15T01:00:49;-0.30;99.90
24638;DHT22;12773;50.162;8.548;2024-01-15T01:03:36;-0.30;99.90
24638;DHT22;12773;50.162;8.548;2024-01-15T01:06:24;-0.30;99.90
24638;DHT22;12773;50.162;8.548;2024-01-15T01:09:12;-0.30;99.90
24638;DHT22;12773;50.162;8.548;2024-01-15T01:11:59;-0.20;99.90
24638;DHT22;12773;50.162;8.548;2024-01-15T01:14:47;-0.20;99.90
24638;DHT22;12773;50.162;8.548;2024-01-15T01:17:34;-0.10;99.90
24638;DHT22;12773;50.162;8.548;2024-01-15T01:20:22;-0.20;99.90
24638;DHT22;12773;50.162;8.548;2024-01-15T01:23:10;-0.20;99.90
24638;DHT22;12773;50.162;8.548;2024-01-15T01:25:57;-0.30;99.90
24638;DHT22;12773;50.162;8.548;2024-01-15T01:28:44;-0.20;99.90
24638;DHT22;12773;50.162;8.548;2024-01-15T01:31:32;-0.20;99.90
24638;DHT22;12773;50.162;8.548;2024-01-15T01:34:19;-0.30;99.90
24638;DHT22;12773;50.162;8.548;2024-01-15T01:37:10;-0.20;99.90
24638;DHT22;12773;50.162;8.548;2024-01-15T01:40:00;-0.20;99.90
24638;DHT22;12773;50.162;8.548;2024-01-15T01:42:49;-0.20;99.90
24638;DHT22;12773;50.162;8.548;2024-01-15T01:45:36;-0.10;99.90
24638;DHT22;12773;50.162;8.548;2024-01-15T01:48:24;-0.20;99.90
24638;DHT22;12773;50.162;8.548;2024-01-15T01:51:15;-0.20;99.90
24638;DHT22;12773;50.162;8.548;2024-01-15T01:54:04;-0.20;99.90
24638;DHT22;12773;50.162;8.548;2024-01-15T01:56:52;-0.20;99.90
24638;DHT22;12773;50.162;8.548;2024-01-15T01:59:40;-0.20;99.90
24638;DHT22;12773;50.162;8.548;2024-01-15T02:02:27;-0.20;99.90
24638;DHT22;12773;50.162;8.548;2024-01-15T02:05:18;-0.30;99.90
24638;DHT22;12773;50.162;8.548;2024-01-15T02:08:05;-0.20;99.90
24638;DHT22;12773;50.162;8.548;2024-01-15T02:10:53;-0.10;99.90
24638;DHT22;12773;50.162;8.548;2024-01-15T02:13:40;-0.10;99.90
24638;DHT22;12773;50.162;8.548;2024-01-15T02:16:28;-0.20;99.90
24638;DHT22;12773;50.162;8.548;2024-01-15T02:19:17;-0.20;99.90
24638;DHT22;12773;50.162;8.548;2024-01-15T02:22:05;-0.20;99.90
24638;DHT22;12773;50.162;8.548;2024-01-15T02:24:52;-0.20;99.90
24638;DHT22;12773;50.162;8.548;2024-01-15T02:27:39;-0.10;99.90
24638;DHT22;12773;50.162;8.548;2024-01-15T02:30:28;-0.20;99.90
24638;DHT22;12773;50.162;8.548;2024-01-15T02:33:17;-0.10;99.90
24638;DHT22;12773;50.162;8.548;2024-01-15T02:36:05;-0.10;99.90
24638;DHT22;12773;50.162;8.548;2024-01-15T02:38:53;0.00;99.90
24638;DHT22;12773;50.162;8.548;2024-01-15T02:41:40;0.00;99.90
24638;DHT22;12773;50.162;8.548;2024-01-15T02:44:27;0.00;99.90
24638;DHT22;12773;50.162;8.548;2024-01-15T02:47:15;0.00;99.90
24638;DHT22;12773;50.162;8.548;2024-01-15T02:50:02;0.00;99.90
24638;DHT22;12773;50.162;8.548;2024-01-15T02:52:50;0.10;99.90
24638;DHT22;12773;50.162;8.548;2024-01-15T02:55:37;0.10;99.90
24638;DHT22;12773;50.162;8.548;2024-01-15T02:58:25;0.00;99.90
24638;DHT22;12773;50.162;8.548;2024-01-15T03:01:12;0.10;99.90
24638;DHT22;12773;50.162;8.548;2024-01-15T03:04:00;0.10;99.90
24638;DHT22;12773;50.162;8.548;2024-01-15T03:06:47;0.10;99.90
24638;DHT22;12773;50.162;8.548;2024-01-15T03:09:35;0.00;99.90
24638;DHT22;12773;50.162;8.548;2024-01-15T03:12:23;0.00;99.90
24638;DHT22;12773;50.162;8.548;2024-01-15T03:15:10;0.00;99.90
24638;DHT22;12773;50.162;8.548;2024-01-15T03:17:58;-0.10;99.90
24638;DHT22;12773;50.162;8.548;2024-01-15T03:20:45;0.00;99.90
24638;DHT22;12773;50.162;8.548;2024-01-15T03:23:34;0.00;99.90
24638;DHT22;12773;50.162;8.548;2024-01-15T03:26:22;-0.10;99.90
24638;DHT22;12773;50.162;8.548;2024-01-15T03:29:09;0.00;99.90
24638;DHT22;12773;50.162;8.548;2024-01-15T03:31:57;0.00;99.90
24638;DHT22;12773;50.162;8.548;2024-01-15T03:34:44;0.00;99.90
24638;DHT22;12773;50.162;8.548;2024-01-15T03:37:33;-0.10;99.90
24638;DHT22;12773;50.162;8.548;2024-01-15T03:40:21;-0.10;99.90
24638;DHT22;12773;50.162;8.548;2024-01-15T03:43:09;0.00;99.90
24638;DHT22;12773;50.162;8.548;2024-01-15T03:45:56;0.10;99.90
24638;DHT22;12773;50.162;8.548;2024-01-15T03:48:44;0.10;99.90
24638;DHT22;12773;50.162;8.548;2024-01-15T03:51:32;0.00;99.90
24638;DHT22;12773;50.162;8.548;2024-01-15T03:54:19;0.00;99.90
24638;DHT22;12773;50.162;8.548;2024-01-15T03:57:07;0.00;99.90
24638;DHT22;12773;50.162;8.548;2024-01-15T03:59:54;0.00;99.90
24638;DHT22;12773;50.162;8.548;2024-01-15T04:02:41;0.10;99.90
24638;DHT22;12773;50.162;8.548;2024-01-15T04:05:29;0.20;99.90
24638;DHT22;12773;50.162;8.548;2024-01-15T04:08:16;0.30;99.90
24638;DHT22;12773;50.162;8.548;2024-01-15T04:11:04;0.30;99.90
24638;DHT22;12773;50.162;8.548;2024-01-15T04:13:52;0.20;99.90
24638;DHT22;12773;50.162;8.548;2024-01-15T04:16:40;0.20;99.90
24638;DHT22;12773;50.162;8.548;2024-01-15T04:19:28;0.20;99.90
24638;DHT22;12773;50.162;8.548;2024-01-15T04:22:15;0.20;99.90
24638;DHT22;12773;50.162;8.548;2024-01-15T04:25:03;0.20;99.90
24638;DHT22;12773;50.162;8.548;2024-01-15T04:27:51;0.20;99.90
24638;DHT22;12773;50.162;8.548;2024-01-15T04:30:38;0.20;99.90
24638;DHT22;12773;50.162;8.548;2024-01-15T04:33:26;0.10;99.90
24638;DHT22;12773;50.162;8.548;2024-01-15T04:36:13;0.10;99.90
24638;DHT22;12773;50.162;8.548;2024-01-15T04:39:00;0.20;99.90
24638;DHT22;12773;50.162;8.548;2024-01-15T04:41:48;0.30;99.90
24638;DHT22;12773;50.162;8.548;2024-01-15T04:44:35;0.30;99.90
24638;DHT22;12773;50.162;8.548;2024-01-15T04:47:23;0.30;99.90
24638;DHT22;12773;50.162;8.548;2024-01-15T04:50:11;0.40;99.90
24638;DHT22;12773;50.162;8.548;2024-01-15T04:52:58;0.30;99.90
24638;DHT22;12773;50.162;8.548;2024-01-15T04:55:46;0.40;99.90
24638;DHT22;12773;50.162;8.548;2024-01-15T04:58:33;0.50;99.90
24638;DHT22;12773;50.162;8.548;2024-01-15T05:01:21;0.50;99.90
24638;DHT22;12773;50.162;8.548;2024-01-15T05:04:08;0.50;99.90
24638;DHT22;12773;50.162;8.548;2024-01-15T05:06:55;0.50;99.90
24638;DHT22;12773;50.162;8.548;2024-01-15T05:09:43;0.60;99.90
24638;DHT22;12773;50.162;8.548;2024-01-15T05:12:31;0.50;99.90
24638;DHT22;12773;50.162;8.548;2024-01-15T05:15:19;0.60;99.90
24638;DHT22;12773;50.162;8.548;2024-01-15T05:18:06;0.60;99.90
24638;DHT22;12773;50.162;8.548;2024-01-15T05:20:54;0.70;99.90
24638;DHT22;12773;50.162;8.548;2024-01-15T05:23:42;0.60;99.90
24638;DHT22;12773;50.162;8.548;2024-01-15T05:26:29;0.70;99.90
24638;DHT22;12773;50.162;8.548;2024-01-15T05:29:17;0.60;99.90
24638;DHT22;12773;50.162;8.548;2024-01-15T05:32:05;0.60;99.90
24638;DHT22;12773;50.162;8.548;2024-01-15T05:34:52;0.60;99.90
24638;DHT22;12773;50.162;8.548;2024-01-15T05:37:42;0.60;99.90
24638;DHT22;12773;50.162;8.548;2024-01-15T05:40:30;0.60;99.90
24638;DHT22;12773;50.162;8.548;2024-01-15T05:43:18;0.60;99.90
24638;DHT22;12773;50.162;8.548;2024-01-15T05:46:05;0.60;99.90
24638;DHT22;12773;50.162;8.548;2024-01-15T05:48:53;0.50;99.90
24638;DHT22;12773;50.162;8.548;2024-01-15T05:51:40;0.50;99.90
24638;DHT22;12773;50.162;8.548;2024-01-15T05:54:28;0.60;99.90
24638;DHT22;12773;50.162;8.548;2024-01-15T05:57:15;0.60;99.90
24638;DHT22;12773;50.162;8.548;2024-01-15T06:00:03;0.60;99.90
24638;DHT22;12773;50.162;8.548;2024-01-15T06:02:51;0.60;99.90
24638;DHT22;12773;50.162;8.548;2024-01-15T06:05:39;0.60;99.90
24638;DHT22;12773;50.162;8.548;2024-01-15T06:08:26;0.60;99.90
24638;DHT22;12773;50.162;8.548;2024-01-15T06:11:14;0.70;99.90
24638;DHT22;12773;50.162;8.548;2024-01-15T06:14:01;0.60;99.90
24638;DHT22;12773;50.162;8.548;2024-01-15T06:16:48;0.50;99.90
24638;DHT22;12773;50.162;8.548;2024-01-15T06:19:36;0.40;99.90
24638;DHT22;12773;50.162;8.548;2024-01-15T06:22:24;0.40;99.90
24638;DHT22;12773;50.162;8.548;2024-01-15T06:25:11;0.40;99.90
24638;DHT22;12773;50.162;8.548;2024-01-15T06:27:59;0.50;99.90
24638;DHT22;12773;50.162;8.548;2024-01-15T06:30:46;0.50;99.90
24638;DHT22;12773;50.162;8.548;2024-01-15T06:33:34;0.60;99.90
24638;DHT22;12773;50.162;8.548;2024-01-15T06:36:21;0.60;99.90
24638;DHT22;12773;50.162;8.548;2024-01-15T06:39:09;0.60;99.90
24638;DHT22;12773;50.162;8.548;2024-01-15T06:41:56;0.70;99.90
24638;DHT22;12773;50.162;8.548;2024-01-15T06:44:43;0.70;99.90
24638;DHT22;12773;50.162;8.548;2024-01-15T06:47:31;0.70;99.90
24638;DHT22;12773;50.162;8.548;2024-01-15T06:50:19;0.70;99.90
24638;DHT22;12773;50.162;8.548;2024-01-15T06:53:06;0.80;99.90
24638;DHT22;12773;50.162;8.548;2024-01-15T06:55:53;0.80;99.90
24638;DHT22;12773;50.162;8.548;2024-01-15T06:58:41;0.80;99.90
24638;DHT22;12773;50.162;8.548;2024-01-15T07:01:28;0.80;99.90
24638;DHT22;12773;50.162;8.548;2024-01-15T07:04:16;0.80;99.90
24638;DHT22;12773;50.162;8.548;2024-01-15T07:07:04;0.80;99.90
24638;DHT22;12773;50.162;8.548;2024-01-15T07:09:51;0.90;99.90
24638;DHT22;12773;50.162;8.548;2024-01-15T07:12:41;0.80;99.90
24638;DHT22;12773;50.162;8.548;2024-01-15T07:15:28;0.80;99.90
24638;DHT22;12773;50.162;8.548;2024-01-15T07:18:16;0.80;99.90
24638;DHT22;12773;50.162;8.548;2024-01-15T07:21:03;0.80;99.90
24638;DHT22;12773;50.162;8.548;2024-01-15T07:23:50;0.80;99.90
24638;DHT22;12773;50.162;8.548;2024-01-15T07:26:38;0.80;99.90
24638;DHT22;12773;50.162;8.548;2024-01-15T07:29:26;0.90;99.90
24638;DHT22;12773;50.162;8.548;2024-01-15T07:32:14;0.80;99.90
24638;DHT22;12773;50.162;8.548;2024-01-15T07:35:01;0.80;99.90
24638;DHT22;12773;50.162;8.548;2024-01-15T07:37:49;0.80;99.90
24638;DHT22;12773;50.162;8.548;2024-01-15T07:40:38;0.80;99.90
24638;DHT22;12773;50.162;8.548;2024-01-15T07:43:25;0.90;99.90
24638;DHT22;12773;50.162;8.548;2024-01-15T07:46:14;0.90;99.90
24638;DHT22;12773;50.162;8.548;2024-01-15T07:49:01;0.80;99.90
24638;DHT22;12773;50.162;8.548;2024-01-15T07:51:50;0.80;99.90
24638;DHT22;12773;50.162;8.548;2024-01-15T07:54:38;0.80;99.90
24638;DHT22;12773;50.162;8.548;2024-01-15T07:57:25;0.80;99.90
24638;DHT22;12773;50.162;8.548;2024-01-15T08:00:15;0.80;99.90
24638;DHT22;12773;50.162;8.548;2024-01-15T08:03:09;0.90;99.90
24638;DHT22;12773;50.162;8.548;2024-01-15T08:05:57;0.90;99.90
24638;DHT22;12773;50.162;8.548;2024-01-15T08:08:47;0.90;99.90
24638;DHT22;12773;50.162;8.548;2024-01-15T08:11:42;0.80;99.90
24638;DHT22;12773;50.162;8.548;2024-01-15T08:14:25;0.80;99.90
24638;DHT22;12773;50.162;8.548;2024-01-15T08:17:13;0.90;99.90
24638;DHT22;12773;50.162;8.548;2024-01-15T08:20:01;1.10;99.90
24638;DHT22;12773;50.162;8.548;2024-01-15T08:22:52;1.20;99.90
24638;DHT22;12773;50.162;8.548;2024-01-15T08:25:39;1.30;99.90
24638;DHT22;12773;50.162;8.548;2024-01-15T08:28:28;1.30;99.90
24638;DHT22;12773;50.162;8.548;2024-01-15T08:31:16;1.30;99.90
24638;DHT22;12773;50.162;8.548;2024-01-15T08:34:04;1.40;99.90
24638;DHT22;12773;50.162;8.548;2024-01-15T08:36:51;1.30;99.90
24638;DHT22;12773;50.162;8.548;2024-01-15T08:39:39;1.20;99.90
24638;DHT22;12773;50.162;8.548;2024-01-15T08:42:26;1.10;99.90
24638;DHT22;12773;50.162;8.548;2024-01-15T08:45:14;1.10;99.90
24638;DHT22;12773;50.162;8.548;2024-01-15T08:48:01;1.20;99.90
24638;DHT22;12773;50.162;8.548;2024-01-15T08:50:49;1.10;99.90
24638;DHT22;12773;50.162;8.548;2024-01-15T08:53:38;1.20;99.90
24638;DHT22;12773;50.162;8.548;2024-01-15T08:56:26;1.20;99.90
24638;DHT22;12773;50.162;8.548;2024-01-15T08:59:13;1.20;99.90
24638;DHT22;12773;50.162;8.548;2024-01-15T09:02:01;1.10;99.90
24638;DHT22;12773;50.162;8.548;2024-01-15T09:04:48;1.30;99.90
24638;DHT22;12773;50.162;8.548;2024-01-15T09:07:36;1.30;99.90
24638;DHT22;12773;50.162;8.548;2024-01-15T09:10:24;1.30;99.90
24638;DHT22;12773;50.162;8.548;2024-01-15T09:13:11;1.50;99.90
24638;DHT22;12773;50.162;8.548;2024-01-15T09:15:59;1.70;99.90
24638;DHT22;12773;50.162;8.548;2024-01-15T09:18:46;1.70;99.90
24638;DHT22;12773;50.162;8.548;2024-01-15T09:21:34;2.10;99.90
24638;DHT22;12773;50.162;8.548;2024-01-15T09:24:22;2.50;99.90
24638;DHT22;12773;50.162;8.548;2024-01-15T09:27:11;3.00;99.90
24638;DHT22;12773;50.162;8.548;2024-01-15T09:29:59;3.30;99.90
24638;DHT22;12773;50.162;8.548;2024-01-15T09:32:46;3.30;99.90
24638;DHT22;12773;50.162;8.548;2024-01-15T09:35:35;3.40;99.90
24638;DHT22;12773;50.162;8.548;2024-01-15T09:38:23;3.50;99.90
24638;DHT22;12773;50.162;8.548;2024-01-15T09:41:11;3.70;99.90
24638;DHT22;12773;50.162;8.548;2024-01-15T09:43:58;3.90;99.90
24638;DHT22;12773;50.162;8.548;2024-01-15T09:46:47;3.70;99.90
24638;DHT22;12773;50.162;8.548;2024-01-15T09:49:36;3.80;99.90
24638;DHT22;12773;50.162;8.548;2024-01-15T09:52:25;3.80;99.90
24638;DHT22;12773;50.162;8.548;2024-01-15T09:55:13;3.90;99.90
24638;DHT22;12773;50.162;8.548;2024-01-15T09:58:02;3.60;99.90
24638;DHT22;12773;50.162;8.548;2024-01-15T10:00:51;3.20;99.90
24638;DHT22;12773;50.162;8.548;2024-01-15T10:03:40;3.00;99.90
24638;DHT22;12773;50.162;8.548;2024-01-15T10:06:28;2.80;99.90
24638;DHT22;12773;50.162;8.548;2024-01-15T10:09:16;2.70;99.90
24638;DHT22;12773;50.162;8.548;2024-01-15T10:12:05;2.70;99.90
24638;DHT22;12773;50.162;8.548;2024-01-15T10:14:52;2.40;99.90
24638;DHT22;12773;50.162;8.548;2024-01-15T10:17:40;2.40;99.90
24638;DHT22;12773;50.162;8.548;2024-01-15T10:20:28;2.40;99.90
24638;DHT22;12773;50.162;8.548;2024-01-15T10:23:15;2.30;99.90
24638;DHT22;12773;50.162;8.548;2024-01-15T10:26:04;2.50;99.90
24638;DHT22;12773;50.162;8.548;2024-01-15T10:28:52;2.40;99.90
24638;DHT22;12773;50.162;8.548;2024-01-15T10:31:39;2.40;99.90
24638;DHT22;12773;50.162;8.548;2024-01-15T10:34:26;2.30;99.90
24638;DHT22;12773;50.162;8.548;2024-01-15T10:37:14;2.30;99.90
24638;DHT22;12773;50.162;8.548;2024-01-15T10:40:03;2.30;99.90
24638;DHT22;12773;50.162;8.548;2024-01-15T10:42:53;2.30;99.90
24638;DHT22;12773;50.162;8.548;2024-01-15T10:45:41;2.30;99.90
24638;DHT22;12773;50.162;8.548;2024-01-15T10:48:29;2.40;99.90
24638;DHT22;12773;50.162;8.548;2024-01-15T10:51:21;2.70;99.90
24638;DHT22;12773;50.162;8.548;2024-01-15T10:54:09;2.80;99.90
24638;DHT22;12773;50.162;8.548;2024-01-15T10:56:57;2.90;99.90
24638;DHT22;12773;50.162;8.548;2024-01-15T10:59:45;3.30;99.90
24638;DHT22;12773;50.162;8.548;2024-01-15T11:02:34;3.20;99.90
24638;DHT22;12773;50.162;8.548;2024-01-15T11:05:26;3.20;99.90
24638;DHT22;12773;50.162;8.548;2024-01-15T11:08:17;3.30;99.90
24638;DHT22;12773;50.162;8.548;2024-01-15T11:11:06;3.20;99.90
24638;DHT22;12773;50.162;8.548;2024-01-15T11:13:54;3.20;99.90
24638;DHT22;12773;50.162;8.548;2024-01-15T11:16:56;3.30;99.90
24638;DHT22;12773;50.162;8.548;2024-01-15T11:19:46;3.10;99.90
24638;DHT22;12773;50.162;8.548;2024-01-15T11:22:48;3.00;99.90
24638;DHT22;12773;50.162;8.548;2024-01-15T11:25:35;2.90;99.90
24638;DHT22;12773;50.162;8.548;2024-01-15T11:29:09;2.90;99.90
24638;DHT22;12773;50.162;8.548;2024-01-15T11:31:17;3.00;99.90
24638;DHT22;12773;50.162;8.548;2024-01-15T11:34:05;3.00;99.90
24638;DHT22;12773;50.162;8.548;2024-01-15T11:39:44;3.20;99.90
24638;DHT22;12773;50.162;8.548;2024-01-15T11:42:32;3.20;99.90
24638;DHT22;12773;50.162;8.548;2024-01-15T11:45:20;3.30;99.90
24638;DHT22;12773;50.162;8.548;2024-01-15T11:48:13;3.20;99.90
24638;DHT22;12773;50.162;8.548;2024-01-15T11:51:04;3.20;99.90
24638;DHT22;12773;50.162;8.548;2024-01-15T11:53:53;3.20;99.90
24638;DHT22;12773;50.162;8.548;2024-01-15T11:56:42;3.30;99.90
24638;DHT22;12773;50.162;8.548;2024-01-15T11:59:30;3.20;99.90
24638;DHT22;12773;50.162;8.548;2024-01-15T12:02:17;3.40;99.90
24638;DHT22;12773;50.162;8.548;2024-01-15T12:05:05;3.40;99.90
24638;DHT22;12773;50.162;8.548;2024-01-15T12:07:53;3.40;99.90
24638;DHT22;12773;50.162;8.548;2024-01-15T12:10:41;3.50;99.90
24638;DHT22;12773;50.162;8.548;2024-01-15T12:13:29;3.50;99.90
24638;DHT22;12773;50.162;8.548;2024-01-15T12:16:16;3.50;99.90
24638;DHT22;12773;50.162;8.548;2024-01-15T12:19:05;3.60;99.90
24638;DHT22;12773;50.162;8.548;2024-01-15T12:21:53;3.50;99.90
24638;DHT22;12773;50.162;8.548;2024-01-15T12:24:40;3.70;99.90
24638;DHT22;12773;50.162;8.548;2024-01-15T12:27:28;3.80;99.90
24638;DHT22;12773;50.162;8.548;2024-01-15T12:30:16;3.90;99.90
24638;DHT22;12773;50.162;8.548;2024-01-15T12:33:07;4.00;99.90
24638;DHT22;12773;50.162;8.548;2024-01-15T12:35:56;4.00;99.90
24638;DHT22;12773;50.162;8.548;2024-01-15T12:38:44;4.10;99.90
24638;DHT22;12773;50.162;8.548;2024-01-15T12:41:34;4.10;99.90
24638;DHT22;12773;50.162;8.548;2024-01-15T12:44:22;4.10;99.90
24638;DHT22;12773;50.162;8.548;2024-01-15T12:47:09;4.00;99.90
24638;DHT22;12773;50.162;8.548;2024-01-15T12:49:58;4.10;99.90
24638;DHT22;12773;50.162;8.548;2024-01-15T12:52:48;4.00;99.90
24638;DHT22;12773;50.162;8.548;2024-01-15T12:55:36;4.20;99.90
24638;DHT22;12773;50.162;8.548;2024-01-15T12:58:23;4.00;99.90
24638;DHT22;12773;50.162;8.548;2024-01-15T13:01:11;4.10;99.90
24638;DHT22;12773;50.162;8.548;2024-01-15T13:03:59;4.00;99.90
24638;DHT22;12773;50.162;8.548;2024-01-15T13:06:47;4.00;99.90
24638;DHT22;12773;50.162;8.548;2024-01-15T13:09:36;4.00;99.90
24638;DHT22;12773;50.162;8.548;2024-01-15T13:12:23;4.00;99.90
24638;DHT22;12773;50.162;8.548;2024-01-15T13:15:11;4.00;99.90
24638;DHT22;12773;50.162;8.548;2024-01-15T13:17:59;4.00;99.90
24638;DHT22;12773;50.162;8.548;2024-01-15T13:20:47;4.00;99.90
24638;DHT22;12773;50.162;8.548;2024-01-15T13:23:35;4.10;99.90
24638;DHT22;12773;50.162;8.548;2024-01-15T13:26:23;4.20;99.90
24638;DHT22;12773;50.162;8.548;2024-01-15T13:29:11;4.20;99.90
24638;DHT22;12773;50.162;8.548;2024-01-15T13:31:59;4.00;99.90
24638;DHT22;12773;50.162;8.548;2024-01-15T13:34:46;4.10;99.90
24638;DHT22;12773;50.162;8.548;2024-01-15T13:37:34;4.20;99.90
24638;DHT22;12773;50.162;8.548;2024-01-15T13:40:23;4.20;99.90
24638;DHT22;12773;50.162;8.548;2024-01-15T13:43:12;4.30;99.90
24638;DHT22;12773;50.162;8.548;2024-01-15T13:46:01;4.10;99.90
24638;DHT22;12773;50.162;8.548;2024-01-15T13:48:50;4.10;99.90
24638;DHT22;12773;50.162;8.548;2024-01-15T13:51:38;4.10;99.90
24638;DHT22;12773;50.162;8.548;2024-01-15T13:54:26;4.10;99.90
24638;DHT22;12773;50.162;8.548;2024-01-15T13:57:16;4.10;99.90
24638;DHT22;12773;50.162;8.548;2024-01-15T14:00:05;4.10;99.90
24638;DHT22;12773;50.162;8.548;2024-01-15T14:02:54;4.00;99.90
24638;DHT22;12773;50.162;8.548;2024-01-15T14:05:42;4.00;99.90
24638;DHT22;12773;50.162;8.548;2024-01-15T14:08:29;4.10;99.90
24638;DHT22;12773;50.162;8.548;2024-01-15T14:11:17;4.20;99.90
24638;DHT22;12773;50.162;8.548;2024-01-15T14:14:04;4.00;99.90
24638;DHT22;12773;50.162;8.548;2024-01-15T14:16:54;4.00;99.90
24638;DHT22;12773;50.162;8.548;2024-01-15T14:19:41;3.90;99.90
24638;DHT22;12773;50.162;8.548;2024-01-15T14:22:30;3.90;99.90
24638;DHT22;12773;50.162;8.548;2024-01-15T14:25:17;3.80;99.90
24638;DHT22;12773;50.162;8.548;2024-01-15T14:28:05;3.70;99.90
24638;DHT22;12773;50.162;8.548;2024-01-15T14:30:53;3.70;99.90
24638;DHT22;12773;50.162;8.548;2024-01-15T14:33:42;3.80;99.90
24638;DHT22;12773;50.162;8.548;2024-01-15T14:36:30;3.80;99.90
24638;DHT22;12773;50.162;8.548;2024-01-15T14:39:17;3.90;99.90
24638;DHT22;12773;50.162;8.548;2024-01-15T14:42:07;3.90;99.90
24638;DHT22;12773;50.162;8.548;2024-01-15T14:44:54;3.80;99.90
24638;DHT22;12773;50.162;8.548;2024-01-15T14:47:42;3.80;99.90
24638;DHT22;12773;50.162;8.548;2024-01-15T14:50:30;3.80;99.90
24638;DHT22;12773;50.162;8.548;2024-01-15T14:53:18;3.80;99.90
24638;DHT22;12773;50.162;8.548;2024-01-15T14:56:05;3.80;99.90
24638;DHT22;12773;50.162;8.548;2024-01-15T14:58:53;3.80;99.90
24638;DHT22;12773;50.162;8.548;2024-01-15T15:01:41;3.80;99.90
24638;DHT22;12773;50.162;8.548;2024-01-15T15:04:29;3.80;99.90
24638;DHT22;12773;50.162;8.548;2024-01-15T15:07:16;3.70;99.90
24638;DHT22;12773;50.162;8.548;2024-01-15T15:10:04;3.60;99.90
24638;DHT22;12773;50.162;8.548;2024-01-15T15:12:52;3.50;99.90
24638;DHT22;12773;50.162;8.548;2024-01-15T15:15:39;3.50;99.90
24638;DHT22;12773;50.162;8.548;2024-01-15T15:18:26;3.40;99.90
24638;DHT22;12773;50.162;8.548;2024-01-15T15:21:15;3.50;99.90
24638;DHT22;12773;50.162;8.548;2024-01-15T15:24:03;3.50;99.90
24638;DHT22;12773;50.162;8.548;2024-01-15T15:26:51;3.50;99.90
24638;DHT22;12773;50.162;8.548;2024-01-15T15:29:40;3.50;99.90
24638;DHT22;12773;50.162;8.548;2024-01-15T15:32:27;3.40;99.90
24638;DHT22;12773;50.162;8.548;2024-01-15T15:35:14;3.40;99.90
24638;DHT22;12773;50.162;8.548;2024-01-15T15:38:02;3.50;99.90
24638;DHT22;12773;50.162;8.548;2024-01-15T15:40:50;3.40;99.90
24638;DHT22;12773;50.162;8.548;2024-01-15T15:43:37;3.40;99.90
24638;DHT22;12773;50.162;8.548;2024-01-15T15:46:25;3.40;99.90
24638;DHT22;12773;50.162;8.548;2024-01-15T15:49:13;3.40;99.90
24638;DHT22;12773;50.162;8.548;2024-01-15T15:52:00;3.40;99.90
24638;DHT22;12773;50.162;8.548;2024-01-15T15:54:49;3.30;99.90
24638;DHT22;12773;50.162;8.548;2024-01-15T15:57:37;3.20;99.90
24638;DHT22;12773;50.162;8.548;2024-01-15T16:00:24;3.10;99.90
24638;DHT22;12773;50.162;8.548;2024-01-15T16:03:12;3.20;99.90
24638;DHT22;12773;50.162;8.548;2024-01-15T16:05:59;3.20;99.90
24638;DHT22;12773;50.162;8.548;2024-01-15T16:08:47;3.20;99.90
24638;DHT22;12773;50.162;8.548;2024-01-15T16:11:35;3.20;99.90
24638;DHT22;12773;50.162;8.548;2024-01-15T16:14:22;3.00;99.90
24638;DHT22;12773;50.162;8.548;2024-01-15T16:17:10;3.10;99.90
24638;DHT22;12773;50.162;8.548;2024-01-15T16:19:58;3.10;99.90
24638;DHT22;12773;50.162;8.548;2024-01-15T16:22:48;3.00;99.90
24638;DHT22;12773;50.162;8.548;2024-01-15T16:25:38;3.00;99.90
24638;DHT22;12773;50.162;8.548;2024-01-15T16:28:26;2.90;99.90
24638;DHT22;12773;50.162;8.548;2024-01-15T16:31:13;2.80;99.90
24638;DHT22;12773;50.162;8.548;2024-01-15T16:34:01;2.80;99.90
24638;DHT22;12773;50.162;8.548;2024-01-15T16:36:50;2.80;99.90
24638;DHT22;12773;50.162;8.548;2024-01-15T16:39:37;2.80;99.90
24638;DHT22;12773;50.162;8.548;2024-01-15T16:42:25;2.80;99.90
24638;DHT22;12773;50.162;8.548;2024-01-15T16:45:13;2.80;99.90
24638;DHT22;12773;50.162;8.548;2024-01-15T16:48:01;2.80;99.90
24638;DHT22;12773;50.162;8.548;2024-01-15T16:50:48;2.80;99.90
24638;DHT22;12773;50.162;8.548;2024-01-15T16:53:36;2.80;99.90
24638;DHT22;12773;50.162;8.548;2024-01-15T16:56:24;2.80;99.90
24638;DHT22;12773;50.162;8.548;2024-01-15T16:59:11;2.80;99.90
24638;DHT22;12773;50.162;8.548;2024-01-15T17:01:58;2.80;99.90
24638;DHT22;12773;50.162;8.548;2024-01-15T17:04:46;2.70;99.90
24638;DHT22;12773;50.162;8.548;2024-01-15T17:07:33;2.70;99.90
24638;DHT22;12773;50.162;8.548;2024-01-15T17:10:21;2.60;99.90
24638;DHT22;12773;50.162;8.548;2024-01-15T17:13:08;2.60;99.90
24638;DHT22;12773;50.162;8.548;2024-01-15T17:15:56;2.60;99.90
24638;DHT22;12773;50.162;8.548;2024-01-15T17:18:46;2.60;99.90
24638;DHT22;12773;50.162;8.548;2024-01-15T17:21:33;2.50;99.90
24638;DHT22;12773;50.162;8.548;2024-01-15T17:24:21;2.60;99.90
24638;DHT22;12773;50.162;8.548;2024-01-15T17:27:08;2.60;99.90
24638;DHT22;12773;50.162;8.548;2024-01-15T17:29:55;2.60;99.90
24638;DHT22;12773;50.162;8.548;2024-01-15T17:32:43;2.60;99.90
24638;DHT22;12773;50.162;8.548;2024-01-15T17:35:30;2.60;99.90
24638;DHT22;12773;50.162;8.548;2024-01-15T17:38:19;2.60;99.90
24638;DHT22;12773;50.162;8.548;2024-01-15T17:41:06;2.60;99.90
24638;DHT22;12773;50.162;8.548;2024-01-15T17:43:54;2.60;99.90
24638;DHT22;12773;50.162;8.548;2024-01-15T17:46:41;2.50;99.90
24638;DHT22;12773;50.162;8.548;2024-01-15T17:49:29;2.60;99.90
24638;DHT22;12773;50.162;8.548;2024-01-15T17:52:17;2.60;99.90
24638;DHT22;12773;50.162;8.548;2024-01-15T17:55:04;2.50;99.90
24638;DHT22;12773;50.162;8.548;2024-01-15T17:57:52;2.50;99.90
24638;DHT22;12773;50.162;8.548;2024-01-15T18:00:40;2.60;99.90